Time;durP1;ratioP1;P1;durP2;ratioP2;P2;SDS_P1;SDS_P2;PMS_P1;PMS_P2;Temp;Humidity;BMP_temperature;BMP_pressure;BME280_temperature;BME280_humidity;BME280_pressure;Samples;Min_cycle;Max_cycle;Signal;HPM_P1;HPM_P2
2021/04/10 00:05:42;;;;;;;4.97;4.47;;;4.50;99.90;;;;;;4772284;30;20427;-80
2021/04/10 00:08:39;;;;;;;4.88;4.38;;;4.50;99.90;;;;;;4792943;29;20417;-79
2021/04/10 00:11:05;;;;;;;6.63;5.40;;;4.50;99.90;;;;;;4783815;29;20406;-79
2021/04/10 00:13:31;;;;;;;5.47;4.77;;;4.50;99.90;;;;;;4816118;29;20434;-80
2021/04/10 00:15:57;;;;;;;5.72;4.70;;;4.50;99.90;;;;;;4812617;29;20420;-80
2021/04/10 00:18:22;;;;;;;4.95;4.45;;;4.50;99.90;;;;;;4780862;29;20388;-78
2021/04/10 00:20:48;;;;;;;5.07;4.57;;;4.50;99.90;;;;;;4799796;29;20461;-82
2021/04/10 00:23:14;;;;;;;6.13;4.87;;;4.50;99.90;;;;;;4801483;29;20419;-81
2021/04/10 00:25:40;;;;;;;7.50;4.77;;;4.40;99.90;;;;;;4775745;29;20424;-77
2021/04/10 00:28:06;;;;;;;6.80;4.43;;;4.40;99.90;;;;;;4782699;29;20408;-80
2021/04/10 00:30:31;;;;;;;4.90;4.45;;;4.40;99.90;;;;;;4794093;29;20408;-81
2021/04/10 00:36:34;;;;;;;5.35;4.68;;;4.30;99.90;;;;;;4807463;29;20794;-83
2021/04/10 00:39:00;;;;;;;4.82;4.00;;;4.30;99.90;;;;;;4804281;29;20418;-81
2021/04/10 00:41:25;;;;;;;4.80;4.28;;;4.30;99.90;;;;;;4808417;29;20409;-84
2021/04/10 00:48:11;;;;;;;4.43;4.00;;;4.20;99.90;;;;;;4842006;29;20423;-79
2021/04/10 00:50:39;;;;;;;6.27;4.00;;;4.30;99.90;;;;;;4809442;29;20404;-81
2021/04/10 00:53:08;;;;;;;5.72;4.63;;;4.10;99.90;;;;;;4793643;29;20412;-81
2021/04/10 00:55:36;;;;;;;6.93;4.50;;;4.10;99.90;;;;;;4821578;29;20448;-80
2021/04/10 01:01:17;;;;;;;6.75;4.68;;;3.90;99.90;;;;;;4826445;29;20424;-81
2021/04/10 01:03:42;;;;;;;5.22;4.43;;;3.90;99.90;;;;;;4796836;29;20404;-80
2021/04/10 01:06:09;;;;;;;6.00;4.60;;;3.80;99.90;;;;;;4782758;29;20411;-81
2021/04/10 01:08:35;;;;;;;4.90;4.40;;;3.80;99.90;;;;;;4789457;29;20417;-79
2021/04/10 01:11:11;;;;;;;7.63;4.80;;;3.70;99.90;;;;;;4796984;29;20449;-80
2021/04/10 01:13:45;;;;;;;5.18;4.68;;;3.60;99.90;;;;;;4810720;29;20425;-79
2021/04/10 01:16:46;;;;;;;5.63;4.80;;;3.60;99.90;;;;;;4815078;29;20452;-81
2021/04/10 01:19:57;;;;;;;5.05;4.53;;;3.50;99.90;;;;;;4806556;29;20431;-80
2021/04/10 01:22:45;;;;;;;5.75;4.65;;;3.50;99.90;;;;;;4815665;29;20428;-79
2021/04/10 01:25:17;;;;;;;5.17;4.40;;;3.50;99.90;;;;;;4817586;29;20414;-80
2021/04/10 01:27:45;;;;;;;5.07;4.05;;;3.50;99.90;;;;;;4809820;29;20406;-80
2021/04/10 01:30:14;;;;;;;4.93;4.30;;;3.50;99.90;;;;;;4808068;29;21012;-79
2021/04/10 01:33:12;;;;;;;6.45;4.40;;;3.40;99.90;;;;;;4799183;29;20410;-80
2021/04/10 01:35:41;;;;;;;5.80;4.30;;;3.40;99.90;;;;;;4801742;29;20416;-81
2021/04/10 01:38:08;;;;;;;5.32;4.35;;;3.40;99.90;;;;;;4786202;29;20408;-81
2021/04/10 01:40:34;;;;;;;4.93;4.43;;;3.30;99.90;;;;;;4800893;29;20900;-80
2021/04/10 01:43:01;;;;;;;6.53;4.47;;;3.30;99.90;;;;;;4789932;24;20951;-81
2021/04/10 01:45:27;;;;;;;4.55;4.15;;;3.30;99.90;;;;;;4810021;29;20428;-83
2021/04/10 01:47:55;;;;;;;4.45;4.05;;;3.30;99.90;;;;;;4832297;29;20486;-80
2021/04/10 01:50:21;;;;;;;6.63;3.90;;;3.20;99.90;;;;;;4779454;29;20413;-78
2021/04/10 01:52:50;;;;;;;4.45;3.85;;;3.20;99.90;;;;;;4809335;29;20408;-78
2021/04/10 01:55:22;;;;;;;4.60;4.15;;;3.20;99.90;;;;;;4792614;29;20457;-78
2021/04/10 01:57:53;;;;;;;4.00;3.65;;;3.10;99.90;;;;;;4792304;29;20424;-79
2021/04/10 02:00:28;;;;;;;5.60;4.60;;;3.00;99.90;;;;;;4822397;29;20493;-78
2021/04/10 02:02:59;;;;;;;4.70;4.20;;;3.00;99.90;;;;;;4778881;29;20468;-78
2021/04/10 02:05:26;;;;;;;5.38;4.15;;;2.90;99.90;;;;;;4793448;29;20428;-78
2021/04/10 02:08:02;;;;;;;6.57;4.00;;;2.90;99.90;;;;;;4807901;29;20500;-80
2021/04/10 02:10:28;;;;;;;4.22;3.83;;;2.90;99.90;;;;;;4798776;29;20421;-79
2021/04/10 02:13:16;;;;;;;4.32;3.92;;;3.00;99.90;;;;;;4809617;29;20510;-77
2021/04/10 02:15:45;;;;;;;5.97;3.90;;;3.10;99.90;;;;;;4781036;29;20425;-79
2021/04/10 02:18:14;;;;;;;4.25;3.85;;;3.20;99.90;;;;;;4817221;29;20472;-78
2021/04/10 02:20:40;;;;;;;7.35;3.97;;;3.20;99.90;;;;;;4809474;29;20412;-77
2021/04/10 02:23:09;;;;;;;4.97;4.00;;;3.10;99.90;;;;;;4793142;29;20511;-77
2021/04/10 02:25:39;;;;;;;4.75;3.90;;;3.20;99.90;;;;;;4803805;29;20424;-78
2021/04/10 02:28:08;;;;;;;4.10;3.75;;;3.20;99.90;;;;;;4835180;29;20413;-78
2021/04/10 02:30:34;;;;;;;3.92;3.58;;;3.20;99.90;;;;;;4818394;29;20419;-77
2021/04/10 02:33:38;;;;;;;5.28;4.28;;;3.20;99.90;;;;;;4807223;29;20496;-78
2021/04/10 02:36:04;;;;;;;4.07;3.72;;;3.20;99.90;;;;;;4785661;29;20438;-77
2021/04/10 02:38:30;;;;;;;4.88;3.70;;;3.30;99.90;;;;;;4779065;29;20417;-78
2021/04/10 02:41:05;;;;;;;4.25;3.80;;;3.30;99.90;;;;;;4779708;29;20410;-77
2021/04/10 02:43:31;;;;;;;3.53;3.22;;;3.30;99.90;;;;;;4800636;29;20430;-78
2021/04/10 02:46:00;;;;;;;4.13;3.75;;;3.40;99.90;;;;;;4808181;29;20937;-77
2021/04/10 02:48:34;;;;;;;5.20;4.13;;;3.40;99.90;;;;;;4795255;29;20477;-79
2021/04/10 02:51:00;;;;;;;3.67;3.38;;;3.40;99.90;;;;;;4822076;29;20515;-78
2021/04/10 02:53:32;;;;;;;3.72;3.40;;;3.40;99.90;;;;;;4832491;29;20436;-77
2021/04/10 02:55:58;;;;;;;4.35;3.72;;;3.40;99.90;;;;;;4804954;29;20421;-83
2021/04/10 02:58:24;;;;;;;4.13;3.70;;;3.40;99.90;;;;;;4806874;29;21140;-77
2021/04/10 03:00:52;;;;;;;3.45;3.15;;;3.40;99.90;;;;;;4780539;29;20425;-80
2021/04/10 03:03:21;;;;;;;3.95;3.45;;;3.40;99.90;;;;;;4832921;29;20421;-77
2021/04/10 03:05:47;;;;;;;4.60;4.03;;;3.60;99.90;;;;;;4806848;29;20495;-79
2021/04/10 03:08:21;;;;;;;3.88;3.47;;;3.50;99.90;;;;;;4809677;29;20416;-78
2021/04/10 03:10:52;;;;;;;4.07;3.67;;;3.60;99.90;;;;;;4784325;29;20537;-82
2021/04/10 03:13:18;;;;;;;4.22;3.78;;;3.60;99.90;;;;;;4798733;29;20410;-78
2021/04/10 03:15:45;;;;;;;4.40;4.00;;;3.70;99.90;;;;;;4805766;29;20463;-78
2021/04/10 03:18:11;;;;;;;4.32;3.47;;;3.70;99.90;;;;;;4809766;29;20423;-78
2021/04/10 03:20:44;;;;;;;4.05;3.42;;;3.60;99.90;;;;;;4828023;29;20417;-81
2021/04/10 03:23:10;;;;;;;5.75;3.75;;;3.60;99.90;;;;;;4789029;29;20530;-78
2021/04/10 03:25:40;;;;;;;4.50;3.95;;;3.60;99.90;;;;;;4787855;29;20786;-78
2021/04/10 03:28:07;;;;;;;4.00;3.60;;;3.50;99.90;;;;;;4784082;29;20421;-79
2021/04/10 03:30:33;;;;;;;4.47;3.63;;;3.50;99.90;;;;;;4805666;29;20421;-78
2021/04/10 03:32:59;;;;;;;4.80;3.80;;;3.40;99.90;;;;;;4794918;29;21281;-78
2021/04/10 03:35:29;;;;;;;4.68;3.60;;;3.50;99.90;;;;;;4791808;29;20422;-78
2021/04/10 03:38:00;;;;;;;3.72;3.42;;;3.50;99.90;;;;;;4807631;29;20424;-77
2021/04/10 03:40:30;;;;;;;4.43;3.67;;;3.60;99.90;;;;;;4804475;29;20437;-77
2021/04/10 03:42:56;;;;;;;4.57;3.70;;;3.70;99.90;;;;;;4792421;29;20450;-78
2021/04/10 03:45:28;;;;;;;3.95;3.55;;;3.80;99.90;;;;;;4806052;29;20416;-77
2021/04/10 03:47:59;;;;;;;4.25;3.85;;;3.90;99.90;;;;;;4774914;29;21284;-78
2021/04/10 03:50:34;;;;;;;5.70;3.88;;;3.90;99.90;;;;;;4791369;29;20422;-78
2021/04/10 03:53:00;;;;;;;4.30;3.90;;;3.90;99.90;;;;;;4824991;29;20430;-77
2021/04/10 03:55:26;;;;;;;4.30;3.90;;;3.90;99.90;;;;;;4821299;29;20896;-79
2021/04/10 03:57:54;;;;;;;3.45;3.15;;;3.90;99.90;;;;;;4793811;29;20424;-77
2021/04/10 04:00:20;;;;;;;4.15;3.75;;;3.90;99.90;;;;;;4771805;29;20922;-80
2021/04/10 04:02:54;;;;;;;3.47;3.17;;;4.00;99.90;;;;;;4776509;29;20492;-77
2021/04/10 04:05:20;;;;;;;3.70;3.30;;;4.10;99.90;;;;;;4816616;29;20474;-80
2021/04/10 04:07:46;;;;;;;3.75;3.38;;;4.10;99.90;;;;;;4805873;29;20422;-78
2021/04/10 04:10:12;;;;;;;4.25;3.33;;;4.20;99.90;;;;;;4803760;29;20454;-78
2021/04/10 04:12:38;;;;;;;3.63;3.33;;;4.20;99.90;;;;;;4791671;29;20500;-78
2021/04/10 04:15:04;;;;;;;4.50;3.23;;;4.20;99.90;;;;;;4803867;29;20776;-81
2021/04/10 04:17:30;;;;;;;3.30;3.00;;;4.20;99.90;;;;;;4774408;29;20418;-79
2021/04/10 04:19:56;;;;;;;4.68;3.80;;;4.20;99.90;;;;;;4807069;29;20410;-78
2021/04/10 04:22:22;;;;;;;4.07;3.60;;;4.10;99.90;;;;;;4818698;29;20414;-78
2021/04/10 04:24:47;;;;;;;5.37;4.03;;;4.00;99.90;;;;;;4823731;29;21053;-77
2021/04/10 04:27:13;;;;;;;4.10;3.70;;;4.20;99.90;;;;;;4803271;29;20425;-79
2021/04/10 04:29:39;;;;;;;3.47;3.17;;;4.20;99.90;;;;;;4817768;29;20426;-77
2021/04/10 04:32:05;;;;;;;4.50;4.10;;;4.20;99.90;;;;;;4802237;29;20417;-77
2021/04/10 04:34:31;;;;;;;4.50;3.92;;;4.20;99.90;;;;;;4821961;29;21038;-77
2021/04/10 04:36:56;;;;;;;4.03;3.47;;;4.20;99.90;;;;;;4817932;29;20410;-78
2021/04/10 04:39:22;;;;;;;4.35;3.95;;;4.20;99.90;;;;;;4808319;29;20922;-78
2021/04/10 04:41:48;;;;;;;3.90;3.57;;;4.20;99.90;;;;;;4806830;29;20412;-78
2021/04/10 04:44:13;;;;;;;3.58;3.28;;;4.10;99.90;;;;;;4773896;29;20590;-79
2021/04/10 04:46:39;;;;;;;4.20;3.80;;;4.20;99.90;;;;;;4793718;29;20441;-77
2021/04/10 04:49:05;;;;;;;6.30;4.73;;;4.20;99.90;;;;;;4792472;29;20401;-79
2021/04/10 04:51:30;;;;;;;5.43;4.88;;;4.10;99.90;;;;;;4795263;29;20477;-79
2021/04/10 04:53:56;;;;;;;5.40;4.50;;;4.10;99.90;;;;;;4790673;29;20490;-80
2021/04/10 04:56:25;;;;;;;5.03;4.53;;;4.10;99.90;;;;;;4833176;29;20778;-77
2021/04/10 04:58:50;;;;;;;5.47;4.82;;;4.10;99.90;;;;;;4802888;29;20424;-78
2021/04/10 05:01:17;;;;;;;5.03;4.43;;;4.20;99.90;;;;;;4783409;29;20397;-79
2021/04/10 05:03:42;;;;;;;5.03;4.30;;;4.10;99.90;;;;;;4802138;29;20502;-77
2021/04/10 05:06:08;;;;;;;7.10;4.60;;;4.10;99.90;;;;;;4787559;29;20447;-78
2021/04/10 05:08:33;;;;;;;5.47;4.97;;;4.10;99.90;;;;;;4803504;29;20417;-77
2021/04/10 05:10:59;;;;;;;4.70;4.20;;;4.10;99.90;;;;;;4804155;29;20667;-78
2021/04/10 05:13:25;;;;;;;4.87;4.00;;;4.10;99.90;;;;;;4790563;29;20405;-79
2021/04/10 05:15:50;;;;;;;4.30;3.90;;;4.20;99.90;;;;;;4787051;29;20464;-79
2021/04/10 05:18:16;;;;;;;4.35;3.95;;;4.30;99.90;;;;;;4818398;29;20416;-76
2021/04/10 05:20:42;;;;;;;4.73;4.30;;;4.30;99.90;;;;;;4834350;29;20417;-76
2021/04/10 05:23:07;;;;;;;5.50;4.35;;;4.30;99.90;;;;;;4774953;29;20452;-78
2021/04/10 05:25:33;;;;;;;4.70;4.30;;;4.40;99.90;;;;;;4790371;29;20409;-78
2021/04/10 05:27:59;;;;;;;5.37;4.83;;;4.50;99.90;;;;;;4819310;29;20425;-79
2021/04/10 05:30:28;;;;;;;5.07;4.57;;;4.50;99.90;;;;;;4830584;29;21077;-79
2021/04/10 05:32:53;;;;;;;5.53;5.03;;;4.50;99.90;;;;;;4792751;29;20418;-77
2021/04/10 05:35:19;;;;;;;4.80;4.40;;;4.80;99.90;;;;;;4813738;29;20431;-81
2021/04/10 05:37:45;;;;;;;5.50;4.77;;;4.90;99.90;;;;;;4806766;29;20532;-80
2021/04/10 05:40:11;;;;;;;6.03;5.20;;;4.90;99.90;;;;;;4824093;29;20420;-77
2021/04/10 05:42:36;;;;;;;5.63;5.05;;;4.90;99.90;;;;;;4806781;29;20945;-77
2021/04/10 05:45:03;;;;;;;7.57;4.80;;;4.90;99.90;;;;;;4840121;29;20425;-77
2021/04/10 05:47:29;;;;;;;5.35;4.35;;;4.90;99.90;;;;;;4818745;29;20492;-76
2021/04/10 05:49:54;;;;;;;5.65;5.10;;;4.90;99.90;;;;;;4807244;29;20448;-77
2021/04/10 05:52:20;;;;;;;4.43;4.03;;;4.90;99.90;;;;;;4790477;29;20505;-77
2021/04/10 05:54:46;;;;;;;6.03;4.50;;;5.00;99.90;;;;;;4800788;29;20424;-77
2021/04/10 05:57:11;;;;;;;8.25;6.20;;;5.00;99.90;;;;;;4794774;29;20415;-77
2021/04/10 05:59:37;;;;;;;6.30;5.30;;;4.90;99.90;;;;;;4801608;29;20416;-77
2021/04/10 06:02:06;;;;;;;5.80;5.13;;;4.90;99.90;;;;;;4830308;29;20425;-77
2021/04/10 06:04:41;;;;;;;5.03;4.53;;;4.90;99.90;;;;;;4816195;29;20417;-76
2021/04/10 06:07:06;;;;;;;4.97;4.47;;;4.90;99.90;;;;;;4815532;29;20414;-76
2021/04/10 06:09:32;;;;;;;5.03;4.60;;;5.00;99.90;;;;;;4800736;29;20403;-76
2021/04/10 06:11:58;;;;;;;5.10;4.60;;;4.90;99.90;;;;;;4819275;29;20905;-78
2021/04/10 06:14:23;;;;;;;5.57;4.82;;;4.90;99.90;;;;;;4818907;29;20789;-76
2021/04/10 06:16:49;;;;;;;5.50;5.00;;;4.90;99.90;;;;;;4833775;29;20443;-77
2021/04/10 06:19:15;;;;;;;5.50;4.85;;;4.90;99.90;;;;;;4806229;29;20456;-76
2021/04/10 06:21:41;;;;;;;5.93;5.35;;;5.00;99.90;;;;;;4835306;29;20413;-77
2021/04/10 06:24:07;;;;;;;5.60;4.70;;;5.00;99.90;;;;;;4835638;29;20798;-76
2021/04/10 06:26:33;;;;;;;7.85;5.20;;;5.00;99.90;;;;;;4807024;29;20453;-76
2021/04/10 06:28:58;;;;;;;5.93;5.32;;;5.00;99.90;;;;;;4776876;29;20606;-78
2021/04/10 06:31:24;;;;;;;9.57;6.17;;;5.00;99.90;;;;;;4803997;29;20901;-78
2021/04/10 06:33:50;;;;;;;6.90;5.82;;;5.10;99.90;;;;;;4835337;29;20425;-77
2021/04/10 06:36:16;;;;;;;7.03;5.63;;;5.10;99.90;;;;;;4835113;29;20436;-78
2021/04/10 06:38:41;;;;;;;7.10;6.10;;;5.10;99.90;;;;;;4804678;29;20498;-77
2021/04/10 06:41:07;;;;;;;7.45;5.40;;;5.10;99.90;;;;;;4819753;29;20512;-77
2021/04/10 06:43:33;;;;;;;5.43;4.93;;;5.20;99.90;;;;;;4804007;29;20421;-77
2021/04/10 06:45:58;;;;;;;5.43;4.93;;;5.20;99.90;;;;;;4833052;29;20417;-78
2021/04/10 06:48:25;;;;;;;5.97;5.28;;;5.30;99.90;;;;;;4832314;29;20432;-77
2021/04/10 06:50:51;;;;;;;5.63;5.05;;;5.30;99.90;;;;;;4788331;29;20501;-77
2021/04/10 06:53:17;;;;;;;6.32;5.25;;;5.30;99.90;;;;;;4804080;29;20644;-77
2021/04/10 06:55:53;;;;;;;5.35;4.78;;;5.30;99.90;;;;;;4817889;29;20451;-76
2021/04/10 06:58:51;;;;;;;6.75;5.97;;;5.40;99.90;;;;;;4817947;29;20437;-76
2021/04/10 07:01:17;;;;;;;6.10;5.57;;;5.50;99.90;;;;;;4776724;29;20426;-77
2021/04/10 07:03:43;;;;;;;6.00;5.23;;;5.50;99.90;;;;;;4831962;29;20866;-77
2021/04/10 07:06:10;;;;;;;6.10;5.50;;;5.50;99.90;;;;;;4817891;29;20567;-77
2021/04/10 07:08:36;;;;;;;5.53;5.03;;;5.60;99.90;;;;;;4808747;29;20429;-76
2021/04/10 07:11:02;;;;;;;6.30;5.65;;;5.70;99.90;;;;;;4801781;29;20485;-76
2021/04/10 07:13:27;;;;;;;5.80;5.20;;;5.70;99.90;;;;;;4819196;29;20957;-77
2021/04/10 07:15:53;;;;;;;6.18;5.57;;;5.80;99.90;;;;;;4832029;29;20433;-78
2021/04/10 07:18:19;;;;;;;8.07;5.47;;;5.80;99.90;;;;;;4803016;29;20421;-77
2021/04/10 07:20:44;;;;;;;6.50;5.82;;;5.90;99.90;;;;;;4832949;29;20434;-76
2021/04/10 07:23:11;;;;;;;6.03;5.43;;;5.90;99.90;;;;;;4831640;29;20835;-78
2021/04/10 07:25:38;;;;;;;8.23;6.67;;;6.00;99.90;;;;;;4817812;29;20553;-78
2021/04/10 07:28:20;;;;;;;7.55;6.38;;;6.00;99.90;;;;;;4771853;29;20429;-78
2021/04/10 07:30:58;;;;;;;8.15;6.40;;;6.10;99.90;;;;;;4833108;29;20504;-78
2021/04/10 07:33:25;;;;;;;6.13;5.53;;;6.20;99.90;;;;;;4816693;29;20471;-87
2021/04/10 07:35:51;;;;;;;6.22;5.63;;;6.20;99.90;;;;;;4788070;29;20433;-79
2021/04/10 07:38:38;;;;;;;6.53;5.77;;;6.30;99.90;;;;;;4804570;29;20410;-78
2021/04/10 07:41:05;;;;;;;8.52;6.75;;;6.40;99.90;;;;;;4802465;29;20422;-78
2021/04/10 07:43:36;;;;;;;8.00;6.20;;;6.50;99.90;;;;;;4807961;29;20489;-78
2021/04/10 07:46:15;;;;;;;9.55;6.15;;;6.60;99.90;;;;;;4785029;29;20433;-78
2021/04/10 07:49:04;;;;;;;11.00;6.82;;;6.70;99.90;;;;;;4806675;29;20460;-79
2021/04/10 07:51:57;;;;;;;7.97;6.53;;;6.80;99.90;;;;;;4815738;29;20719;-77
2021/04/10 07:54:27;;;;;;;6.72;6.07;;;7.00;99.90;;;;;;4810160;29;20433;-79
2021/04/10 07:57:03;;;;;;;6.38;5.78;;;7.00;99.90;;;;;;4802217;29;20421;-78
2021/04/10 07:59:30;;;;;;;6.70;6.10;;;7.10;99.90;;;;;;4832261;29;21004;-77
2021/04/10 08:02:25;;;;;;;7.07;6.10;;;7.20;99.90;;;;;;4802742;29;20506;-78
2021/04/10 08:04:57;;;;;;;7.10;6.38;;;7.30;99.90;;;;;;4792635;29;21040;-77
2021/04/10 08:07:31;;;;;;;6.60;6.00;;;7.50;99.90;;;;;;4791339;29;20425;-76
2021/04/10 08:10:00;;;;;;;7.68;6.32;;;7.60;99.90;;;;;;4799558;29;20449;-77
2021/04/10 08:12:31;;;;;;;7.15;6.40;;;7.60;99.90;;;;;;4832196;29;20444;-76
2021/04/10 08:14:57;;;;;;;7.40;6.55;;;7.70;99.90;;;;;;4801662;29;20425;-75
2021/04/10 08:17:39;;;;;;;7.38;6.60;;;7.70;99.90;;;;;;4814528;29;20490;-75
2021/04/10 08:20:27;;;;;;;6.82;6.20;;;7.70;99.90;;;;;;4799012;29;20483;-76
2021/04/10 08:22:53;;;;;;;7.85;6.30;;;7.80;99.90;;;;;;4816723;29;20417;-78
2021/04/10 08:25:32;;;;;;;6.85;6.25;;;7.90;99.90;;;;;;4815859;29;20505;-78
2021/04/10 08:27:58;;;;;;;6.95;5.93;;;8.00;99.90;;;;;;4802681;29;20422;-77
2021/04/10 08:30:25;;;;;;;7.18;6.40;;;8.00;99.90;;;;;;4804721;29;20507;-76
2021/04/10 08:32:51;;;;;;;8.27;6.57;;;8.10;99.90;;;;;;4809936;29;20457;-75
2021/04/10 08:35:16;;;;;;;7.00;6.30;;;8.10;99.90;;;;;;4816964;29;20973;-76
2021/04/10 08:37:43;;;;;;;8.07;6.40;;;8.20;99.90;;;;;;4829916;29;20425;-75
2021/04/10 08:40:09;;;;;;;6.20;5.60;;;8.10;99.90;;;;;;4795755;29;20433;-75
2021/04/10 08:42:35;;;;;;;7.50;6.37;;;8.20;99.90;;;;;;4803872;29;20506;-76
2021/04/10 08:45:00;;;;;;;6.43;5.82;;;8.20;99.90;;;;;;4815659;29;20520;-77
2021/04/10 08:47:26;;;;;;;9.15;7.20;;;8.20;99.90;;;;;;4804627;29;20421;-76
2021/04/10 08:49:52;;;;;;;8.40;6.40;;;8.20;99.90;;;;;;4802225;29;20422;-78
2021/04/10 08:52:22;;;;;;;6.72;6.03;;;8.30;99.90;;;;;;4788059;29;20433;-76
2021/04/10 08:54:49;;;;;;;7.07;6.38;;;8.30;99.90;;;;;;4831125;29;20426;-76
2021/04/10 08:57:15;;;;;;;7.03;6.32;;;8.40;99.90;;;;;;4828708;29;20493;-77
2021/04/10 08:59:45;;;;;;;6.85;6.15;;;8.40;99.90;;;;;;4815621;29;20425;-76
2021/04/10 09:02:19;;;;;;;6.40;5.72;;;8.40;99.90;;;;;;4801247;29;20480;-76
2021/04/10 09:04:58;;;;;;;6.68;6.03;;;8.50;99.90;;;;;;4816101;29;20418;-78
2021/04/10 09:07:49;;;;;;;6.75;6.07;;;8.60;99.90;;;;;;4828244;29;20926;-78
2021/04/10 09:10:24;;;;;;;7.13;6.33;;;8.70;99.90;;;;;;4818668;29;20414;-80
2021/04/10 09:12:50;;;;;;;7.82;7.00;;;8.70;99.90;;;;;;4809952;29;20423;-80
2021/04/10 09:15:16;;;;;;;6.47;5.87;;;8.80;99.90;;;;;;4826518;29;20441;-79
2021/04/10 09:18:05;;;;;;;6.93;6.30;;;8.90;99.90;;;;;;4817477;29;20418;-78
2021/04/10 09:20:46;;;;;;;8.15;6.05;;;9.00;99.90;;;;;;4801614;29;20405;-79
2021/04/10 09:23:17;;;;;;;6.60;5.97;;;9.20;99.90;;;;;;4819661;29;20437;-80
2021/04/10 09:25:45;;;;;;;6.67;6.03;;;9.30;99.90;;;;;;4831292;29;20425;-78
2021/04/10 09:28:10;;;;;;;7.30;6.60;;;9.20;99.90;;;;;;4831906;29;21184;-77
2021/04/10 09:30:37;;;;;;;6.73;6.10;;;9.20;99.90;;;;;;4802294;29;20414;-77
2021/04/10 09:33:27;;;;;;;7.18;6.38;;;9.20;99.90;;;;;;4817539;29;20437;-77
2021/04/10 09:35:53;;;;;;;7.15;6.38;;;9.20;99.90;;;;;;4796938;29;20826;-84
2021/04/10 09:38:37;;;;;;;7.17;6.47;;;9.20;99.90;;;;;;4820521;29;20417;-77
2021/04/10 09:41:03;;;;;;;6.72;6.10;;;9.20;99.90;;;;;;4799770;29;20422;-78
2021/04/10 09:43:29;;;;;;;7.60;6.80;;;9.20;99.90;;;;;;4816784;29;20521;-78
2021/04/10 09:45:55;;;;;;;7.18;6.47;;;9.10;99.90;;;;;;4804114;29;20406;-82
2021/04/10 09:48:21;;;;;;;6.53;6.00;;;9.10;99.90;;;;;;4816506;29;20444;-77
2021/04/10 09:50:50;;;;;;;7.43;6.60;;;9.20;99.90;;;;;;4788806;29;20918;-77
2021/04/10 09:53:25;;;;;;;7.07;6.38;;;9.30;99.90;;;;;;4816807;29;20641;-78
2021/04/10 09:55:59;;;;;;;8.47;7.00;;;9.20;99.90;;;;;;4830721;29;20445;-77
2021/04/10 09:58:25;;;;;;;7.55;6.63;;;9.30;99.90;;;;;;4785030;29;21366;-77
2021/04/10 10:00:53;;;;;;;7.53;6.80;;;9.30;99.90;;;;;;4786532;29;20417;-80
2021/04/10 10:03:20;;;;;;;6.90;6.00;;;9.40;99.90;;;;;;4817798;29;20429;-78
2021/04/10 10:05:49;;;;;;;6.95;6.25;;;9.50;99.90;;;;;;4818219;29;20421;-77
2021/04/10 10:08:18;;;;;;;7.80;6.77;;;9.50;99.90;;;;;;4821614;29;20410;-77
2021/04/10 10:10:54;;;;;;;7.10;6.40;;;9.50;99.90;;;;;;4818597;29;20989;-80
2021/04/10 10:13:20;;;;;;;7.43;6.70;;;9.50;99.90;;;;;;4818002;29;20456;-78
2021/04/10 10:15:50;;;;;;;7.03;6.32;;;9.50;99.90;;;;;;4785960;29;20428;-77
2021/04/10 10:18:20;;;;;;;8.75;6.93;;;9.40;99.90;;;;;;4802859;29;20410;-77
2021/04/10 10:21:17;;;;;;;6.27;5.77;;;9.40;99.90;;;;;;4830954;29;20429;-77
2021/04/10 10:23:58;;;;;;;7.20;6.50;;;9.40;99.90;;;;;;4825228;29;20480;-79
2021/04/10 10:26:28;;;;;;;7.18;6.45;;;9.40;99.90;;;;;;4814399;29;20476;-78
2021/04/10 10:28:57;;;;;;;6.93;6.22;;;9.30;99.90;;;;;;4819226;29;20410;-77
2021/04/10 10:31:23;;;;;;;7.10;6.40;;;9.30;99.90;;;;;;4807643;29;20414;-77
2021/04/10 10:33:49;;;;;;;6.97;6.30;;;9.30;99.90;;;;;;4770885;29;20427;-77
2021/04/10 10:36:15;;;;;;;7.38;6.68;;;9.20;99.90;;;;;;4784607;29;20415;-77
2021/04/10 10:38:44;;;;;;;8.20;6.93;;;9.10;99.90;;;;;;4817141;29;20421;-77
2021/04/10 10:41:10;;;;;;;8.33;6.43;;;9.10;99.90;;;;;;4836355;29;20465;-79
2021/04/10 10:43:36;;;;;;;7.28;6.50;;;9.10;99.90;;;;;;4801906;29;20997;-79
2021/04/10 10:46:03;;;;;;;6.93;6.33;;;9.20;99.90;;;;;;4804432;29;20418;-84
2021/04/10 10:48:31;;;;;;;7.07;6.38;;;9.20;99.90;;;;;;4837178;29;20551;-77
2021/04/10 10:51:08;;;;;;;8.00;6.50;;;9.20;99.90;;;;;;4776097;29;20440;-78
2021/04/10 10:53:36;;;;;;;7.82;7.03;;;9.30;99.90;;;;;;4830433;29;20405;-77
2021/04/10 10:56:09;;;;;;;6.97;6.27;;;9.30;99.90;;;;;;4809467;29;20830;-80
2021/04/10 10:58:39;;;;;;;7.55;6.78;;;9.40;99.90;;;;;;4820239;29;20828;-79
2021/04/10 11:01:12;;;;;;;8.60;7.67;;;9.30;99.90;;;;;;4803515;29;20418;-79
2021/04/10 11:04:11;;;;;;;7.77;6.97;;;9.40;99.90;;;;;;4832455;29;20438;-77
2021/04/10 11:06:49;;;;;;;8.32;7.15;;;9.50;99.90;;;;;;4781500;29;20426;-78
2021/04/10 11:09:21;;;;;;;9.10;7.80;;;9.60;99.90;;;;;;4808486;29;20923;-79
2021/04/10 11:11:48;;;;;;;8.60;7.70;;;9.60;99.90;;;;;;4835991;29;20461;-77
2021/04/10 11:14:24;;;;;;;8.60;7.68;;;9.70;99.90;;;;;;4805583;29;21071;-78
2021/04/10 11:16:51;;;;;;;8.73;7.07;;;9.70;99.90;;;;;;4834038;29;20406;-77
2021/04/10 11:19:35;;;;;;;8.32;7.43;;;9.80;99.90;;;;;;4806187;29;20421;-79
2021/04/10 11:22:02;;;;;;;7.83;7.07;;;9.80;99.90;;;;;;4816997;29;20416;-81
2021/04/10 11:24:38;;;;;;;7.78;7.07;;;9.80;99.90;;;;;;4818382;29;20473;-78
2021/04/10 11:27:16;;;;;;;7.43;6.57;;;9.90;99.90;;;;;;4819964;29;20491;-81
2021/04/10 11:30:03;;;;;;;7.93;7.23;;;9.90;99.90;;;;;;4802663;29;20466;-78
2021/04/10 11:32:42;;;;;;;7.50;6.80;;;10.00;99.90;;;;;;4804770;29;20413;-78
2021/04/10 11:35:15;;;;;;;8.20;7.40;;;10.10;99.90;;;;;;4827871;29;20505;-79
2021/04/10 11:37:42;;;;;;;6.75;6.13;;;10.10;99.90;;;;;;4821047;29;20418;-77
2021/04/10 11:40:16;;;;;;;6.82;6.15;;;10.10;99.90;;;;;;4820699;29;20459;-80
2021/04/10 11:43:12;;;;;;;7.55;6.75;;;10.10;99.90;;;;;;4819821;29;20475;-77
2021/04/10 11:45:43;;;;;;;6.78;6.18;;;10.10;99.90;;;;;;4781817;29;20428;-79
2021/04/10 11:48:21;;;;;;;7.65;6.82;;;10.20;99.90;;;;;;4808082;29;20421;-78
2021/04/10 11:50:54;;;;;;;6.85;6.15;;;10.20;99.90;;;;;;4796995;29;20999;-78
2021/04/10 11:53:34;;;;;;;6.95;6.35;;;10.40;99.90;;;;;;4821180;29;20421;-78
2021/04/10 11:56:00;;;;;;;7.20;6.53;;;10.40;99.90;;;;;;4819301;29;20430;-80
2021/04/10 11:58:36;;;;;;;7.03;6.22;;;10.40;99.90;;;;;;4822569;29;20410;-78
2021/04/10 12:01:03;;;;;;;6.57;5.97;;;10.50;99.90;;;;;;4815259;29;20550;-80
2021/04/10 12:03:29;;;;;;;8.43;6.43;;;10.50;99.90;;;;;;4808610;29;20429;-81
2021/04/10 12:05:55;;;;;;;6.63;6.00;;;10.60;99.90;;;;;;4821947;29;20421;-79
2021/04/10 12:08:28;;;;;;;7.22;6.38;;;10.60;99.90;;;;;;4807817;29;20481;-83
2021/04/10 12:10:55;;;;;;;6.93;6.10;;;10.50;99.90;;;;;;4836307;29;20418;-81
2021/04/10 12:13:22;;;;;;;6.93;6.22;;;10.50;99.90;;;;;;4807954;29;20414;-80
2021/04/10 12:15:49;;;;;;;7.20;6.38;;;10.30;99.90;;;;;;4824279;29;20784;-78
2021/04/10 12:18:15;;;;;;;8.00;6.72;;;10.30;99.90;;;;;;4790047;29;20442;-83
2021/04/10 12:20:41;;;;;;;6.80;6.18;;;10.30;99.90;;;;;;4830149;29;20414;-80
2021/04/10 12:23:07;;;;;;;8.90;6.53;;;10.20;99.90;;;;;;4821680;29;20657;-77
2021/04/10 12:25:34;;;;;;;6.80;5.83;;;10.20;99.90;;;;;;4789751;29;20544;-80
2021/04/10 12:27:59;;;;;;;8.30;6.22;;;10.20;99.90;;;;;;4822592;29;20855;-81
2021/04/10 12:30:25;;;;;;;6.88;6.18;;;10.20;99.90;;;;;;4832145;29;20448;-82
2021/04/10 12:32:51;;;;;;;6.72;6.03;;;10.30;99.90;;;;;;4834997;29;20516;-77
2021/04/10 12:35:17;;;;;;;6.30;5.70;;;10.30;99.90;;;;;;4818516;29;20505;-76
2021/04/10 12:37:43;;;;;;;6.70;6.00;;;10.30;99.90;;;;;;4805118;29;20417;-77
2021/04/10 12:40:09;;;;;;;7.30;6.03;;;10.30;99.90;;;;;;4804066;29;20432;-80
2021/04/10 12:42:35;;;;;;;6.68;5.95;;;10.20;99.90;;;;;;4788589;29;20953;-79
2021/04/10 12:45:01;;;;;;;6.13;5.57;;;10.10;99.90;;;;;;4795019;29;20476;-77
2021/04/10 12:47:26;;;;;;;6.60;6.00;;;10.10;99.90;;;;;;4821783;29;20891;-78
2021/04/10 12:49:52;;;;;;;6.55;5.95;;;10.10;99.90;;;;;;4793624;29;20422;-81
2021/04/10 12:52:19;;;;;;;6.63;6.03;;;10.00;99.90;;;;;;4833710;29;20425;-79
2021/04/10 12:54:45;;;;;;;6.83;6.00;;;10.00;99.90;;;;;;4819296;29;20497;-78
2021/04/10 12:57:11;;;;;;;6.80;6.13;;;10.00;99.90;;;;;;4816493;29;20514;-77
2021/04/10 12:59:37;;;;;;;7.25;6.55;;;10.00;99.90;;;;;;4802929;29;20430;-77
2021/04/10 13:02:03;;;;;;;6.55;5.95;;;10.00;99.90;;;;;;4805305;29;20425;-77
2021/04/10 13:04:29;;;;;;;6.55;5.95;;;10.00;99.90;;;;;;4837744;29;20847;-81
2021/04/10 13:06:55;;;;;;;6.50;5.87;;;10.10;99.90;;;;;;4818551;29;20422;-82
2021/04/10 13:09:21;;;;;;;7.40;6.38;;;10.10;99.90;;;;;;4805403;29;20431;-78
2021/04/10 13:11:46;;;;;;;6.27;5.67;;;10.10;99.90;;;;;;4789841;29;20409;-82
2021/04/10 13:14:12;;;;;;;6.25;5.70;;;10.00;99.90;;;;;;4821954;29;20497;-78
2021/04/10 13:16:38;;;;;;;7.65;6.15;;;10.10;99.90;;;;;;4815015;29;20410;-77
2021/04/10 13:19:04;;;;;;;6.80;6.10;;;10.00;99.90;;;;;;4815646;29;20421;-77
2021/04/10 13:21:30;;;;;;;6.70;6.10;;;10.00;99.90;;;;;;4839837;29;20414;-77
2021/04/10 13:23:55;;;;;;;6.72;6.00;;;10.10;99.90;;;;;;4805206;29;20471;-78